OPA Logo
 

ASOS: KRDM
At:2019.02.24 0156 UTC
Wind:080° @ 3KT
Viz: 3 mile(s)
Sky: overcast
Temp: light snow; mist
DewP: 0.02 inches
RH: 35.1 F (1.7 C)
Baro: 35.1 F (1.7 C)
ob: KRDM 240156Z 08003KT 3SM -SN BR BKN020 OVC025 02/00 A3001 RMK AO2 RAE33SNB33 SLP176 P0002 T00170000
Apache-SSL Logo

Valid HTML 4.01!

Central Oregon OPA Chapter

Calendar


Other Calendar pages

Oregon Pilots Association Events Calendar

Washington Pilots Association Events


Web page by: gem@rellim.com